Time;durP1;ratioP1;P1;durP2;ratioP2;P2;SDS_P1;SDS_P2;PMS_P1;PMS_P2;Temp;Humidity;BMP_temperature;BMP_pressure;BME280_temperature;BME280_humidity;BME280_pressure;Samples;Min_cycle;Max_cycle;Signal;HPM_P1;HPM_P2
2022/05/28 00:01:15;;;;;;;8.10;1.55;;;13.60;48.70;;;;;;4941427;28;20411;-45
2022/05/28 00:03:43;;;;;;;11.88;2.28;;;13.60;48.70;;;;;;4943854;28;20082;-47
2022/05/28 00:06:12;;;;;;;8.00;1.75;;;13.60;48.60;;;;;;4942304;29;20062;-50
2022/05/28 00:08:40;;;;;;;8.35;1.42;;;13.60;48.60;;;;;;4941596;28;20063;-45
2022/05/28 00:11:14;;;;;;;8.68;1.65;;;13.60;48.60;;;;;;4943891;28;20082;-47
2022/05/28 00:13:43;;;;;;;7.70;1.95;;;13.60;48.60;;;;;;4942981;28;20066;-48
2022/05/28 00:16:11;;;;;;;6.20;1.70;;;13.60;48.50;;;;;;4941718;28;20487;-46
2022/05/28 00:18:40;;;;;;;7.80;1.63;;;13.60;48.50;;;;;;4940539;28;20062;-49
2022/05/28 00:21:07;;;;;;;8.65;1.98;;;13.60;48.40;;;;;;4940301;28;20055;-45
2022/05/28 00:23:35;;;;;;;7.60;1.92;;;13.60;48.40;;;;;;4944233;28;20416;-45
2022/05/28 00:26:03;;;;;;;12.40;2.25;;;13.60;48.40;;;;;;4941093;28;20408;-46
2022/05/28 00:28:31;;;;;;;8.45;1.60;;;13.60;48.40;;;;;;4942405;28;20059;-46
2022/05/28 00:31:00;;;;;;;8.45;1.70;;;13.60;48.60;;;;;;4942761;28;20051;-47
2022/05/28 00:33:30;;;;;;;7.80;2.40;;;13.60;48.70;;;;;;4942953;28;20530;-45
2022/05/28 00:35:58;;;;;;;12.95;1.65;;;13.60;48.70;;;;;;4940083;28;20055;-45
2022/05/28 00:38:26;;;;;;;12.40;2.00;;;13.60;48.80;;;;;;4941664;28;20063;-46
2022/05/28 00:40:57;;;;;;;9.48;2.03;;;13.60;48.70;;;;;;4942265;28;20424;-47
2022/05/28 00:43:28;;;;;;;11.27;1.83;;;13.60;48.70;;;;;;4943014;28;20059;-47
2022/05/28 00:46:01;;;;;;;15.93;2.58;;;13.50;48.80;;;;;;4942313;28;20058;-46
2022/05/28 00:48:32;;;;;;;18.77;1.90;;;13.50;48.80;;;;;;4940016;28;20063;-51
2022/05/28 00:51:05;;;;;;;9.95;1.85;;;13.50;48.90;;;;;;4943635;28;20055;-46
2022/05/28 00:53:33;;;;;;;11.50;1.77;;;13.50;49.00;;;;;;4946817;29;20063;-48
2022/05/28 00:56:03;;;;;;;14.07;2.15;;;13.40;49.10;;;;;;4947140;28;20051;-48
2022/05/28 00:58:30;;;;;;;11.95;2.25;;;13.40;49.10;;;;;;4943052;28;20062;-45
2022/05/28 01:01:00;;;;;;;9.65;2.05;;;13.40;49.10;;;;;;4944756;28;20854;-45
2022/05/28 01:03:33;;;;;;;12.93;2.20;;;13.40;49.10;;;;;;4946996;28;20065;-46
2022/05/28 01:06:07;;;;;;;11.50;1.80;;;13.40;49.10;;;;;;4944748;28;20062;-47
2022/05/28 01:08:41;;;;;;;3.53;1.30;;;13.40;49.10;;;;;;4942981;28;20059;-45
2022/05/28 01:11:20;;;;;;;7.85;1.45;;;13.40;49.20;;;;;;4947513;28;20055;-45
2022/05/28 01:13:54;;;;;;;6.13;2.05;;;13.40;49.20;;;;;;4945525;28;20138;-46
2022/05/28 01:16:25;;;;;;;;;;;13.40;49.20;;;;;;4945835;29;20059;-45
2022/05/28 01:18:57;;;;;;;7.35;2.42;;;13.40;49.20;;;;;;4942148;28;19926;-46
2022/05/28 01:21:31;;;;;;;8.93;1.75;;;13.40;49.10;;;;;;4945197;28;20055;-45
2022/05/28 01:24:06;;;;;;;8.98;1.60;;;13.40;49.20;;;;;;4944485;28;20401;-45
2022/05/28 01:26:53;;;;;;;8.48;2.25;;;13.40;49.30;;;;;;4947073;28;20051;-46
2022/05/28 01:29:24;;;;;;;16.50;2.95;;;13.40;49.50;;;;;;4944819;28;20059;-47
2022/05/28 01:31:52;;;;;;;8.40;1.98;;;13.30;49.40;;;;;;4946244;28;20062;-46
2022/05/28 01:34:21;;;;;;;11.27;2.33;;;13.30;49.40;;;;;;4944969;28;20059;-46
2022/05/28 01:36:50;;;;;;;9.70;2.20;;;13.30;49.70;;;;;;4945378;29;20062;-46
2022/05/28 01:39:19;;;;;;;12.95;2.13;;;13.30;49.70;;;;;;4937892;28;20059;-47
2022/05/28 01:41:49;;;;;;;13.35;2.97;;;13.30;49.60;;;;;;4943324;28;20047;-48
2022/05/28 01:44:18;;;;;;;9.40;2.45;;;13.30;49.60;;;;;;4944490;28;20073;-47
2022/05/28 01:46:49;;;;;;;9.63;1.95;;;13.20;49.60;;;;;;4945149;28;20055;-45
2022/05/28 01:49:19;;;;;;;14.23;2.25;;;13.20;49.60;;;;;;4941730;28;20059;-45
2022/05/28 01:51:50;;;;;;;9.55;1.85;;;13.20;49.70;;;;;;4946526;28;20511;-45
2022/05/28 01:54:21;;;;;;;12.25;3.20;;;13.20;49.70;;;;;;4946331;29;20081;-47
2022/05/28 01:56:52;;;;;;;12.45;3.08;;;13.20;49.70;;;;;;4944836;28;20617;-45
2022/05/28 01:59:22;;;;;;;16.25;2.20;;;13.20;49.70;;;;;;4943947;28;20491;-48
2022/05/28 02:01:52;;;;;;;15.07;2.63;;;13.20;49.80;;;;;;4944405;28;20059;-49
2022/05/28 02:04:20;;;;;;;13.65;2.38;;;13.20;49.70;;;;;;4945152;29;20067;-45
2022/05/28 02:06:48;;;;;;;8.35;1.90;;;13.20;49.80;;;;;;4945806;28;20055;-45
2022/05/28 02:09:18;;;;;;;12.48;2.10;;;13.20;49.80;;;;;;4943310;28;20388;-45
2022/05/28 02:12:00;;;;;;;12.50;2.92;;;13.20;49.80;;;;;;4946267;28;20510;-46
2022/05/28 02:14:37;;;;;;;10.80;1.88;;;13.20;49.80;;;;;;4945966;29;20066;-44
2022/05/28 02:17:12;;;;;;;13.15;1.85;;;13.20;49.80;;;;;;4943896;28;20085;-45
2022/05/28 02:19:50;;;;;;;13.05;2.65;;;13.20;49.80;;;;;;4942562;28;20051;-48
2022/05/28 02:22:22;;;;;;;9.27;1.80;;;13.20;49.80;;;;;;4945997;29;20076;-45
2022/05/28 02:24:56;;;;;;;10.38;2.08;;;13.20;49.80;;;;;;4943414;28;20051;-46
2022/05/28 02:27:27;;;;;;;5.55;1.33;;;13.20;49.80;;;;;;4944250;28;20059;-46
2022/05/28 02:29:54;;;;;;;10.07;2.17;;;13.20;49.80;;;;;;4946177;28;20054;-47
2022/05/28 02:32:25;;;;;;;7.80;1.80;;;13.20;49.80;;;;;;4944705;28;20483;-48
2022/05/28 02:34:53;;;;;;;9.13;1.88;;;13.20;49.90;;;;;;4942968;28;20051;-48
2022/05/28 02:37:24;;;;;;;7.82;1.70;;;13.20;49.90;;;;;;4940811;28;20070;-49
2022/05/28 02:39:52;;;;;;;7.88;1.92;;;13.20;50.00;;;;;;4942475;28;20059;-46
2022/05/28 02:42:20;;;;;;;12.95;2.30;;;13.20;50.00;;;;;;4944287;29;20056;-50
2022/05/28 02:44:48;;;;;;;8.75;2.05;;;13.20;50.00;;;;;;4943610;28;20519;-46
2022/05/28 02:47:15;;;;;;;10.32;2.03;;;13.20;50.00;;;;;;4941677;28;20420;-46
2022/05/28 02:49:44;;;;;;;9.30;2.10;;;13.20;50.00;;;;;;4944024;29;20080;-46
2022/05/28 02:52:11;;;;;;;8.43;1.95;;;13.20;50.10;;;;;;4945260;29;20362;-46
2022/05/28 02:54:39;;;;;;;8.30;1.92;;;13.20;50.10;;;;;;4944625;28;20066;-45
2022/05/28 02:57:07;;;;;;;7.57;1.55;;;13.20;50.10;;;;;;4944251;28;20063;-45
2022/05/28 02:59:34;;;;;;;15.95;2.70;;;13.30;50.20;;;;;;4943252;28;20059;-48
2022/05/28 03:02:02;;;;;;;13.30;1.75;;;13.30;50.20;;;;;;4944513;28;20058;-45
2022/05/28 03:04:30;;;;;;;6.28;1.90;;;13.30;50.30;;;;;;4943102;28;20066;-45
2022/05/28 03:06:59;;;;;;;11.52;2.08;;;13.30;50.30;;;;;;4944233;28;20062;-45
2022/05/28 03:09:26;;;;;;;11.05;2.10;;;13.30;50.40;;;;;;4941848;28;20066;-46
2022/05/28 03:11:54;;;;;;;7.90;1.92;;;13.30;50.20;;;;;;4943751;28;20051;-46
2022/05/28 03:14:21;;;;;;;12.70;2.05;;;13.40;50.20;;;;;;4943199;28;20063;-50
2022/05/28 03:16:49;;;;;;;10.20;2.03;;;13.40;50.20;;;;;;4943998;28;20078;-45
2022/05/28 03:19:16;;;;;;;11.82;2.60;;;13.40;50.20;;;;;;4939397;28;20055;-47
2022/05/28 03:21:44;;;;;;;13.13;2.72;;;13.40;50.20;;;;;;4943979;28;20066;-46
2022/05/28 03:24:13;;;;;;;8.52;1.77;;;13.40;50.20;;;;;;4943230;28;20554;-47
2022/05/28 03:26:40;;;;;;;9.25;2.10;;;13.50;50.20;;;;;;4945036;28;20411;-52
2022/05/28 03:29:07;;;;;;;9.00;2.10;;;13.50;50.40;;;;;;4941701;28;20062;-45
2022/05/28 03:31:35;;;;;;;11.38;2.05;;;13.50;50.30;;;;;;4944572;28;20059;-45
2022/05/28 03:34:02;;;;;;;9.43;1.77;;;13.50;50.30;;;;;;4942723;28;20420;-46
2022/05/28 03:36:30;;;;;;;10.60;2.40;;;13.50;50.30;;;;;;4944188;28;20059;-48
2022/05/28 03:38:58;;;;;;;7.32;2.10;;;13.50;50.20;;;;;;4940724;28;20062;-46
2022/05/28 03:41:28;;;;;;;6.97;2.13;;;13.50;50.20;;;;;;4941055;28;20073;-46
2022/05/28 03:43:56;;;;;;;9.25;2.33;;;13.50;50.30;;;;;;4942464;28;20508;-46
2022/05/28 03:46:26;;;;;;;16.60;2.53;;;13.60;50.30;;;;;;4942419;28;20051;-47
2022/05/28 03:48:57;;;;;;;9.48;2.13;;;13.60;50.30;;;;;;4940843;28;20407;-46
2022/05/28 03:51:25;;;;;;;9.73;2.03;;;13.60;50.30;;;;;;4942484;29;20427;-48
2022/05/28 03:53:52;;;;;;;14.50;2.15;;;13.60;50.40;;;;;;4942829;28;20051;-49
2022/05/28 03:56:21;;;;;;;7.53;2.13;;;13.60;50.30;;;;;;4943776;28;20558;-48
2022/05/28 03:58:50;;;;;;;10.82;2.05;;;13.60;50.40;;;;;;4942114;28;20051;-46
2022/05/28 04:01:18;;;;;;;17.75;2.65;;;13.50;50.40;;;;;;4942558;28;20267;-46
2022/05/28 04:03:45;;;;;;;13.10;2.85;;;13.50;50.40;;;;;;4941590;28;20047;-51
2022/05/28 04:06:13;;;;;;;17.55;3.10;;;13.50;50.40;;;;;;4944103;28;20055;-51
2022/05/28 04:08:42;;;;;;;14.25;2.60;;;13.50;50.60;;;;;;4940183;28;20051;-45
2022/05/28 04:11:09;;;;;;;8.23;2.30;;;13.40;50.60;;;;;;4943825;29;20055;-47
2022/05/28 04:13:36;;;;;;;10.77;2.45;;;13.40;50.80;;;;;;4943349;28;20406;-45
2022/05/28 04:16:06;;;;;;;12.15;1.95;;;13.40;50.90;;;;;;4939065;28;20062;-46
2022/05/28 04:18:33;;;;;;;14.88;2.83;;;13.30;51.00;;;;;;4932039;28;20051;-47
2022/05/28 04:21:01;;;;;;;20.38;3.03;;;13.30;51.10;;;;;;4941349;28;20059;-48
2022/05/28 04:23:28;;;;;;;14.07;3.60;;;13.30;51.20;;;;;;4941891;28;20074;-51
2022/05/28 04:25:56;;;;;;;14.50;2.78;;;13.20;51.30;;;;;;4940871;28;20055;-51
2022/05/28 04:28:23;;;;;;;13.25;2.70;;;13.30;51.50;;;;;;4945784;28;20058;-48
2022/05/28 04:30:51;;;;;;;17.98;2.95;;;13.30;51.60;;;;;;4948109;28;20064;-49
2022/05/28 04:33:20;;;;;;;14.85;2.80;;;13.30;51.80;;;;;;4948200;28;20064;-47
2022/05/28 04:35:47;;;;;;;19.10;3.22;;;13.20;51.90;;;;;;4944124;28;20047;-49
2022/05/28 04:38:14;;;;;;;15.85;3.05;;;13.20;52.00;;;;;;4944177;28;20066;-45
2022/05/28 04:40:42;;;;;;;7.57;2.08;;;13.30;52.10;;;;;;4946229;28;20086;-45
2022/05/28 04:43:09;;;;;;;12.43;2.92;;;13.30;52.10;;;;;;4947767;28;20059;-47
2022/05/28 04:45:37;;;;;;;11.43;2.60;;;13.30;52.30;;;;;;4943728;28;20060;-45
2022/05/28 04:48:05;;;;;;;12.00;2.72;;;13.30;52.40;;;;;;4945067;28;20051;-47
2022/05/28 04:50:34;;;;;;;15.73;3.58;;;13.30;52.30;;;;;;4944864;28;20059;-49
2022/05/28 04:53:01;;;;;;;21.88;3.90;;;13.40;52.30;;;;;;4948319;28;20047;-47
2022/05/28 04:55:29;;;;;;;11.98;2.63;;;13.40;52.50;;;;;;4946414;28;20070;-47
2022/05/28 04:57:56;;;;;;;16.10;3.05;;;13.40;52.60;;;;;;4946746;28;20059;-50
2022/05/28 05:00:26;;;;;;;17.00;2.60;;;13.40;52.70;;;;;;4945744;28;20066;-53
2022/05/28 05:02:54;;;;;;;14.13;3.03;;;13.40;52.70;;;;;;4946280;29;20388;-48
2022/05/28 05:05:22;;;;;;;10.85;2.72;;;13.40;52.70;;;;;;4944124;29;20070;-52
2022/05/28 05:07:50;;;;;;;16.55;3.35;;;13.40;52.80;;;;;;4946602;28;20047;-47
2022/05/28 05:10:18;;;;;;;10.32;2.60;;;13.40;52.90;;;;;;4947204;29;20059;-45
2022/05/28 05:12:45;;;;;;;11.15;2.35;;;13.40;52.90;;;;;;4946429;28;20514;-46
2022/05/28 05:15:14;;;;;;;19.77;2.88;;;13.40;53.00;;;;;;4945887;28;20058;-47
2022/05/28 05:17:41;;;;;;;15.80;3.63;;;13.50;53.40;;;;;;4945575;29;20058;-49
2022/05/28 05:20:11;;;;;;;16.25;2.95;;;13.50;53.40;;;;;;4944608;28;20511;-46
2022/05/28 05:22:39;;;;;;;11.73;3.30;;;13.50;53.40;;;;;;4944270;28;20051;-50
2022/05/28 05:25:09;;;;;;;18.35;3.70;;;13.50;53.50;;;;;;4947204;28;20047;-45
2022/05/28 05:27:37;;;;;;;16.25;3.00;;;13.60;53.70;;;;;;4945875;29;20484;-53
2022/05/28 05:30:06;;;;;;;23.23;3.28;;;13.60;53.80;;;;;;4945941;28;20058;-47
2022/05/28 05:32:33;;;;;;;16.10;3.30;;;13.60;54.10;;;;;;4946512;28;20066;-47
2022/05/28 05:35:01;;;;;;;16.92;3.38;;;13.60;54.20;;;;;;4944768;28;20051;-46
2022/05/28 05:37:28;;;;;;;14.93;2.53;;;13.70;54.30;;;;;;4945299;28;20070;-45
2022/05/28 05:39:56;;;;;;;17.52;3.53;;;13.70;54.40;;;;;;4947298;28;20483;-50
2022/05/28 05:42:25;;;;;;;13.52;3.40;;;13.80;54.50;;;;;;4945417;28;20062;-49
2022/05/28 05:44:53;;;;;;;19.40;3.88;;;13.80;54.80;;;;;;4945466;29;20062;-51
2022/05/28 05:47:21;;;;;;;15.32;3.00;;;13.90;55.00;;;;;;4942727;28;20059;-50
2022/05/28 05:49:48;;;;;;;16.35;3.20;;;13.90;55.10;;;;;;4927770;28;20058;-47
2022/05/28 05:52:23;;;;;;;12.45;3.15;;;13.90;55.40;;;;;;4927400;29;20050;-48
2022/05/28 05:54:50;;;;;;;17.15;3.72;;;14.00;55.40;;;;;;4943362;28;20423;-47
2022/05/28 05:57:18;;;;;;;11.43;3.22;;;14.00;55.60;;;;;;4941915;28;20415;-48
2022/05/28 05:59:47;;;;;;;18.48;4.13;;;14.10;55.80;;;;;;4945149;28;20058;-51
2022/05/28 06:02:14;;;;;;;22.58;3.90;;;14.10;55.60;;;;;;4941260;29;20059;-46
2022/05/28 06:04:42;;;;;;;19.40;4.00;;;14.20;55.80;;;;;;4942613;28;20047;-48
2022/05/28 06:07:09;;;;;;;20.42;3.40;;;14.30;55.70;;;;;;4943893;28;20070;-47
2022/05/28 06:09:37;;;;;;;19.67;3.67;;;14.30;55.60;;;;;;4945350;28;20070;-50
2022/05/28 06:12:05;;;;;;;19.33;3.83;;;14.40;55.50;;;;;;4946574;28;20059;-51
2022/05/28 06:14:32;;;;;;;17.80;3.47;;;14.40;55.20;;;;;;4937845;28;20043;-47
2022/05/28 06:17:01;;;;;;;15.50;3.65;;;14.40;55.20;;;;;;4944149;28;20063;-53
2022/05/28 06:19:28;;;;;;;20.02;3.97;;;14.50;55.20;;;;;;4942521;28;20074;-51
2022/05/28 06:21:59;;;;;;;15.00;3.25;;;14.50;55.10;;;;;;4945265;28;20051;-51
2022/05/28 06:24:26;;;;;;;17.70;3.95;;;14.50;55.10;;;;;;4945403;28;20054;-51
2022/05/28 06:26:54;;;;;;;22.02;4.20;;;14.50;55.00;;;;;;4945007;28;20063;-50
2022/05/28 06:29:21;;;;;;;18.75;3.80;;;14.50;55.00;;;;;;4944233;28;20055;-46
2022/05/28 06:31:49;;;;;;;15.05;4.03;;;14.60;55.10;;;;;;4942165;28;20054;-52
2022/05/28 06:34:18;;;;;;;12.70;3.10;;;14.60;55.20;;;;;;4943378;28;20055;-46
2022/05/28 06:36:46;;;;;;;12.82;3.55;;;14.60;55.00;;;;;;4945031;28;20055;-50
2022/05/28 06:39:14;;;;;;;16.08;3.92;;;14.70;55.30;;;;;;4945457;28;20055;-52
2022/05/28 06:41:41;;;;;;;16.83;3.60;;;14.80;55.20;;;;;;4943647;28;20059;-52
2022/05/28 06:44:09;;;;;;;17.88;3.78;;;14.80;55.20;;;;;;4945026;28;20059;-50
2022/05/28 06:46:36;;;;;;;19.27;3.25;;;14.80;55.20;;;;;;4941705;28;20047;-52
2022/05/28 06:49:04;;;;;;;15.32;2.95;;;14.70;54.90;;;;;;4943245;28;20602;-52
2022/05/28 06:51:33;;;;;;;18.75;3.65;;;14.70;55.10;;;;;;4945545;28;20423;-51
2022/05/28 06:54:01;;;;;;;19.02;3.88;;;14.70;55.10;;;;;;4943313;28;20389;-51
2022/05/28 06:56:28;;;;;;;11.27;2.67;;;14.70;55.00;;;;;;4943130;28;20055;-53
2022/05/28 06:58:56;;;;;;;14.70;2.55;;;14.70;55.00;;;;;;4940892;28;20051;-46
2022/05/28 07:01:23;;;;;;;14.68;3.00;;;14.80;55.20;;;;;;4942960;28;20128;-54
2022/05/28 07:03:50;;;;;;;14.25;2.83;;;14.80;55.40;;;;;;4942727;28;20059;-48
2022/05/28 07:06:18;;;;;;;22.17;3.50;;;14.90;56.00;;;;;;4944578;28;20293;-50
2022/05/28 07:08:47;;;;;;;16.67;2.30;;;15.00;55.60;;;;;;4944186;29;20051;-50
2022/05/28 07:11:14;;;;;;;12.90;2.75;;;15.10;55.20;;;;;;4943757;28;20055;-53
2022/05/28 07:13:42;;;;;;;16.15;3.30;;;15.20;54.90;;;;;;4944500;28;20055;-48
2022/05/28 07:16:11;;;;;;;15.55;2.75;;;15.30;55.70;;;;;;4943303;29;20056;-49
2022/05/28 07:18:40;;;;;;;14.43;2.17;;;15.30;54.20;;;;;;4941224;28;20047;-52
2022/05/28 07:21:09;;;;;;;9.35;2.15;;;15.40;53.50;;;;;;4942921;28;20519;-47
2022/05/28 07:23:37;;;;;;;15.57;2.20;;;15.40;52.80;;;;;;4938652;28;20051;-49
2022/05/28 07:26:08;;;;;;;17.35;3.47;;;15.50;53.30;;;;;;4939714;28;20043;-49
2022/05/28 07:28:37;;;;;;;14.00;2.78;;;15.60;53.30;;;;;;4943082;28;20066;-51
2022/05/28 07:31:06;;;;;;;12.85;2.38;;;15.50;52.70;;;;;;4943735;28;20483;-51
2022/05/28 07:33:36;;;;;;;12.32;2.50;;;15.50;52.70;;;;;;4944450;29;20055;-51
2022/05/28 07:36:06;;;;;;;12.98;3.20;;;15.50;53.00;;;;;;4939666;28;20043;-50
2022/05/28 07:38:35;;;;;;;17.38;3.53;;;15.50;53.10;;;;;;4942847;28;20407;-53
2022/05/28 07:41:05;;;;;;;7.03;1.98;;;15.50;53.50;;;;;;4940956;28;20515;-49
2022/05/28 07:43:33;;;;;;;10.68;2.05;;;15.60;51.70;;;;;;4944058;28;20069;-53
2022/05/28 07:46:01;;;;;;;8.63;1.83;;;15.60;51.30;;;;;;4941460;28;20483;-55
2022/05/28 07:48:28;;;;;;;7.57;1.50;;;15.60;50.80;;;;;;4941961;28;20748;-52
2022/05/28 07:50:55;;;;;;;10.88;1.73;;;15.70;50.80;;;;;;4942210;28;20070;-53
2022/05/28 07:53:23;;;;;;;11.07;2.28;;;15.70;49.90;;;;;;4943719;28;20061;-51
2022/05/28 07:55:50;;;;;;;11.43;2.15;;;15.60;49.80;;;;;;4940386;28;20058;-50
2022/05/28 07:58:20;;;;;;;10.60;1.92;;;15.60;49.90;;;;;;4943313;28;20055;-52
2022/05/28 08:00:50;;;;;;;9.18;1.77;;;15.60;50.00;;;;;;4941926;29;20054;-52
2022/05/28 08:03:18;;;;;;;14.00;2.10;;;15.50;50.40;;;;;;4943108;28;20058;-51
2022/05/28 08:05:49;;;;;;;9.32;1.98;;;15.60;50.80;;;;;;4942778;28;20047;-48
2022/05/28 08:08:17;;;;;;;9.27;2.00;;;15.60;50.40;;;;;;4940151;28;20419;-51
2022/05/28 08:10:45;;;;;;;10.15;1.83;;;15.60;49.90;;;;;;4943936;28;20504;-47
2022/05/28 08:13:15;;;;;;;9.27;2.03;;;15.60;49.60;;;;;;4943354;28;20054;-51
2022/05/28 08:15:45;;;;;;;11.75;1.73;;;15.60;49.90;;;;;;4943191;28;20047;-51
2022/05/28 08:18:15;;;;;;;9.20;2.10;;;15.60;50.20;;;;;;4943006;29;20503;-49
2022/05/28 08:23:27;;;;;;;11.05;2.67;;;15.60;49.90;;;;;;4949910;29;20065;-51
2022/05/28 08:25:54;;;;;;;12.18;1.95;;;15.70;50.10;;;;;;4942290;28;20488;-52
2022/05/28 08:28:23;;;;;;;9.77;1.70;;;15.70;50.40;;;;;;4942138;28;20055;-47
2022/05/28 08:30:52;;;;;;;10.15;1.95;;;15.70;50.60;;;;;;4940554;28;20514;-48
2022/05/28 08:33:21;;;;;;;14.60;2.45;;;15.70;50.40;;;;;;4942768;28;20071;-48
2022/05/28 08:35:51;;;;;;;13.45;2.35;;;15.70;50.70;;;;;;4939191;28;20054;-48
2022/05/28 08:38:21;;;;;;;13.95;2.47;;;15.70;50.70;;;;;;4943665;28;20063;-50
2022/05/28 08:40:52;;;;;;;14.02;2.47;;;15.70;51.20;;;;;;4942210;28;20397;-50
2022/05/28 08:43:20;;;;;;;9.35;1.92;;;15.70;50.90;;;;;;4941611;28;20508;-47
2022/05/28 08:45:51;;;;;;;11.63;2.15;;;15.70;50.60;;;;;;4942641;28;20047;-50
2022/05/28 08:48:26;;;;;;;8.57;2.17;;;15.80;50.10;;;;;;4938276;28;20055;-46
2022/05/28 08:50:59;;;;;;;6.78;2.05;;;15.80;50.70;;;;;;4942728;29;20063;-49
2022/05/28 08:53:31;;;;;;;8.60;1.77;;;15.80;49.60;;;;;;4941700;28;20055;-46
2022/05/28 08:55:59;;;;;;;7.43;1.67;;;15.90;48.70;;;;;;4942900;28;20066;-48
2022/05/28 08:58:28;;;;;;;4.13;0.93;;;16.00;49.10;;;;;;4942226;28;20055;-47
2022/05/28 09:01:00;;;;;;;9.45;1.38;;;15.90;47.50;;;;;;4941955;28;20505;-50
2022/05/28 09:03:30;;;;;;;6.72;1.40;;;16.00;48.10;;;;;;4943845;28;20063;-51
2022/05/28 09:06:02;;;;;;;7.40;1.40;;;16.00;48.00;;;;;;4942965;28;20055;-48
2022/05/28 09:08:32;;;;;;;6.68;1.60;;;16.00;49.40;;;;;;4937919;28;20066;-45
2022/05/28 09:11:04;;;;;;;12.15;2.38;;;16.10;48.80;;;;;;4945677;28;20055;-45
2022/05/28 09:13:39;;;;;;;5.30;1.20;;;16.20;46.60;;;;;;4941665;28;20051;-51
2022/05/28 09:16:12;;;;;;;5.35;1.17;;;16.20;45.50;;;;;;4947038;28;20437;-50
2022/05/28 09:18:42;;;;;;;7.00;1.38;;;16.30;47.30;;;;;;4943299;28;20430;-48
2022/05/28 09:21:13;;;;;;;5.40;1.02;;;16.30;45.40;;;;;;4943492;28;20055;-46
2022/05/28 09:23:44;;;;;;;8.48;2.00;;;16.40;46.10;;;;;;4943191;28;20059;-45
2022/05/28 09:26:14;;;;;;;10.85;1.50;;;16.40;46.10;;;;;;4942221;28;20429;-46
2022/05/28 09:28:55;;;;;;;9.70;1.52;;;16.40;46.00;;;;;;4944197;28;20055;-49
2022/05/28 09:31:37;;;;;;;7.22;2.05;;;16.40;45.30;;;;;;4945007;28;20055;-48
2022/05/28 09:34:18;;;;;;;7.47;1.45;;;16.50;46.00;;;;;;4944887;28;20594;-49
2022/05/28 09:36:55;;;;;;;11.77;1.40;;;16.60;46.60;;;;;;4944705;28;20412;-46
2022/05/28 09:39:35;;;;;;;9.43;1.40;;;16.60;43.70;;;;;;4943060;28;20058;-48
2022/05/28 09:42:09;;;;;;;7.40;1.65;;;16.60;44.00;;;;;;4946589;28;20585;-47
2022/05/28 09:44:51;;;;;;;4.65;1.27;;;16.60;45.70;;;;;;4946797;28;20055;-51
2022/05/28 09:47:20;;;;;;;4.93;1.40;;;16.60;45.70;;;;;;4942190;28;20058;-54
2022/05/28 09:49:50;;;;;;;7.63;1.60;;;16.70;46.10;;;;;;4943896;29;20058;-49
2022/05/28 09:52:24;;;;;;;9.05;1.40;;;16.80;46.90;;;;;;4943530;28;20051;-51
2022/05/28 09:54:51;;;;;;;5.40;1.17;;;17.00;46.30;;;;;;4938630;28;20062;-53
2022/05/28 09:57:24;;;;;;;10.93;2.00;;;17.00;45.10;;;;;;4931736;28;20043;-50
2022/05/28 09:59:55;;;;;;;10.55;1.50;;;17.10;44.60;;;;;;4939693;28;20835;-52
2022/05/28 10:02:27;;;;;;;6.57;1.30;;;17.10;44.40;;;;;;4942192;28;20078;-51
2022/05/28 10:04:58;;;;;;;2.78;1.00;;;17.10;44.60;;;;;;4944602;29;20059;-50
2022/05/28 10:07:31;;;;;;;11.70;1.65;;;17.10;44.90;;;;;;4943838;28;20518;-55
2022/05/28 10:09:59;;;;;;;4.35;1.23;;;17.20;43.60;;;;;;4943599;28;20055;-50
2022/05/28 10:12:28;;;;;;;5.88;1.13;;;17.20;43.70;;;;;;4942384;28;20063;-48
2022/05/28 10:15:04;;;;;;;4.70;1.00;;;17.20;43.20;;;;;;4943852;28;20058;-51
2022/05/28 10:17:34;;;;;;;9.65;1.35;;;17.10;41.80;;;;;;4942683;28;20062;-47
2022/05/28 10:20:05;;;;;;;9.93;1.30;;;17.10;42.40;;;;;;4938974;28;20415;-49
2022/05/28 10:22:32;;;;;;;13.65;1.73;;;17.10;42.70;;;;;;4943151;28;20059;-49
2022/05/28 10:25:03;;;;;;;5.32;0.95;;;17.00;42.40;;;;;;4945990;28;20495;-50
2022/05/28 10:27:35;;;;;;;3.33;1.00;;;17.10;44.00;;;;;;4940867;28;20050;-49
2022/05/28 10:30:07;;;;;;;7.10;1.20;;;17.20;45.40;;;;;;4945715;28;20055;-47
2022/05/28 10:32:41;;;;;;;5.97;1.30;;;17.30;45.00;;;;;;4945665;29;20058;-44
2022/05/28 10:35:15;;;;;;;9.65;1.23;;;17.40;44.60;;;;;;4943134;28;20055;-49
2022/05/28 10:37:44;;;;;;;6.55;0.98;;;17.60;43.50;;;;;;4941190;28;20071;-52
2022/05/28 10:40:19;;;;;;;4.85;1.08;;;17.60;42.60;;;;;;4940258;28;20515;-49
2022/05/28 10:42:48;;;;;;;3.90;0.80;;;17.70;42.60;;;;;;4936691;28;20051;-46
2022/05/28 10:45:19;;;;;;;7.75;0.98;;;17.70;42.70;;;;;;4943534;28;20503;-45
2022/05/28 10:48:11;;;;;;;4.63;0.98;;;17.70;41.70;;;;;;4939685;28;20052;-47
2022/05/28 10:50:48;;;;;;;5.88;1.10;;;17.70;40.70;;;;;;4940653;28;20418;-50
2022/05/28 10:53:23;;;;;;;8.73;1.42;;;17.70;41.00;;;;;;4944707;28;20070;-49
2022/05/28 10:56:00;;;;;;;;;;;17.60;41.70;;;;;;4943790;28;20078;-46
2022/05/28 10:58:39;;;;;;;6.07;0.90;;;17.50;40.60;;;;;;4940919;28;19926;-51
2022/05/28 11:01:16;;;;;;;6.22;1.08;;;17.40;40.20;;;;;;4942963;28;20420;-49
2022/05/28 11:04:25;;;;;;;8.60;1.10;;;17.30;40.60;;;;;;4943445;28;20066;-53
2022/05/28 11:07:15;;;;;;;4.38;1.20;;;17.30;41.10;;;;;;4941619;28;20066;-50
2022/05/28 11:09:54;;;;;;;5.22;1.00;;;17.30;41.30;;;;;;4942910;28;20051;-51
2022/05/28 11:12:53;;;;;;;2.75;0.80;;;17.40;40.40;;;;;;4945677;28;20055;-51
2022/05/28 11:15:39;;;;;;;4.65;0.75;;;17.40;38.80;;;;;;4935621;28;20055;-51
2022/05/28 11:18:43;;;;;;;2.58;0.80;;;17.40;39.10;;;;;;4937419;28;20524;-47
2022/05/28 11:21:31;;;;;;;5.55;1.17;;;17.50;38.40;;;;;;4942174;28;20066;-44
2022/05/28 11:24:13;;;;;;;5.47;0.70;;;17.60;38.70;;;;;;4943504;28;20064;-51
2022/05/28 11:26:50;;;;;;;4.93;0.98;;;17.70;37.60;;;;;;4939229;28;20055;-50
2022/05/28 11:29:38;;;;;;;4.28;0.95;;;17.80;37.50;;;;;;4940535;28;20174;-52
2022/05/28 11:32:12;;;;;;;4.25;0.80;;;17.90;37.40;;;;;;4936652;28;20055;-49
2022/05/28 11:34:44;;;;;;;2.38;0.52;;;17.90;35.40;;;;;;4941628;28;20047;-52
2022/05/28 11:37:18;;;;;;;7.65;0.80;;;17.90;37.40;;;;;;4943407;28;20055;-49
2022/05/28 11:39:56;;;;;;;3.47;0.93;;;18.00;38.90;;;;;;4943575;28;20051;-46
2022/05/28 11:42:31;;;;;;;5.57;1.35;;;18.00;37.30;;;;;;4945086;28;20518;-52
2022/05/28 11:45:02;;;;;;;3.83;0.70;;;18.10;37.80;;;;;;4941295;28;20043;-49
2022/05/28 11:47:47;;;;;;;2.97;0.80;;;18.10;39.00;;;;;;4941676;28;20514;-52
2022/05/28 11:53:19;;;;;;;9.97;0.90;;;18.10;38.50;;;;;;4949407;28;20058;-52
2022/05/28 11:55:50;;;;;;;5.22;0.85;;;18.10;38.00;;;;;;4945279;28;20059;-46
2022/05/28 11:58:19;;;;;;;3.65;0.90;;;18.20;38.70;;;;;;4939241;28;20054;-52
2022/05/28 12:00:52;;;;;;;2.90;0.60;;;18.30;37.80;;;;;;4943128;29;20530;-46
2022/05/28 12:03:22;;;;;;;5.03;1.20;;;18.30;38.00;;;;;;4944768;28;20055;-48
2022/05/28 12:05:51;;;;;;;5.43;0.90;;;18.40;37.00;;;;;;4943349;28;20055;-45
2022/05/28 12:08:29;;;;;;;4.75;0.90;;;18.50;38.70;;;;;;4944757;28;20128;-46
2022/05/28 12:11:02;;;;;;;6.75;1.15;;;18.50;37.50;;;;;;4944496;28;20059;-48
2022/05/28 12:13:37;;;;;;;6.22;0.80;;;18.60;38.30;;;;;;4944785;28;20051;-46
2022/05/28 12:16:09;;;;;;;3.28;0.75;;;18.80;38.50;;;;;;4957209;28;20063;-53
2022/05/28 12:18:40;;;;;;;3.88;1.02;;;18.80;36.60;;;;;;4930596;28;20506;-49
2022/05/28 12:21:07;;;;;;;3.92;0.73;;;18.90;35.40;;;;;;4938510;28;20058;-48
2022/05/28 12:23:39;;;;;;;7.13;1.55;;;19.00;37.00;;;;;;4939163;28;20058;-50
2022/05/28 12:26:40;;;;;;;4.07;1.08;;;19.00;35.80;;;;;;4942380;28;20055;-48
2022/05/28 12:29:08;;;;;;;4.20;1.00;;;18.90;35.40;;;;;;4940059;28;20055;-48
2022/05/28 12:31:36;;;;;;;3.20;0.77;;;18.90;35.30;;;;;;4943842;28;20062;-47
2022/05/28 12:34:04;;;;;;;5.97;1.05;;;18.80;35.90;;;;;;4940789;28;20062;-48
2022/05/28 12:36:41;;;;;;;5.97;1.20;;;18.60;34.70;;;;;;4943833;29;20047;-49
2022/05/28 12:39:32;;;;;;;5.18;0.95;;;18.50;34.70;;;;;;4942872;28;20078;-49
2022/05/28 12:42:01;;;;;;;5.70;1.40;;;18.20;35.30;;;;;;4941973;28;20059;-49
2022/05/28 12:44:29;;;;;;;3.38;0.70;;;18.10;36.20;;;;;;4942376;28;20059;-47
2022/05/28 12:46:59;;;;;;;6.90;1.30;;;18.00;37.50;;;;;;4946919;28;20059;-50
2022/05/28 12:49:31;;;;;;;2.88;0.88;;;17.90;35.20;;;;;;4945397;28;20055;-48
2022/05/28 12:52:29;;;;;;;4.22;1.00;;;17.90;35.70;;;;;;4942884;28;20055;-52
2022/05/28 12:55:05;;;;;;;3.33;1.00;;;18.00;35.80;;;;;;4947078;28;20070;-49
2022/05/28 12:57:36;;;;;;;4.00;1.00;;;18.00;34.50;;;;;;4945935;28;20066;-47
2022/05/28 13:00:08;;;;;;;1.95;0.90;;;18.00;35.70;;;;;;4943075;28;20070;-47
2022/05/28 13:02:41;;;;;;;5.50;0.80;;;17.90;35.30;;;;;;4945570;28;20058;-51
2022/05/28 13:05:12;;;;;;;3.03;0.90;;;17.90;34.80;;;;;;4929474;28;20063;-48
2022/05/28 13:07:46;;;;;;;5.20;0.93;;;17.90;35.40;;;;;;4938416;28;20055;-49